Time;durP1;ratioP1;P1;durP2;ratioP2;P2;SDS_P1;SDS_P2;PMS_P1;PMS_P2;Temp;Humidity;BMP_temperature;BMP_pressure;BME280_temperature;BME280_humidity;BME280_pressure;Samples;Min_cycle;Max_cycle;Signal;HPM_P1;HPM_P2
2022/01/15 00:00:16;;;;;;;4.50;3.50;;;-0.90;99.90;;;;;;503068;236;27451;-69
2022/01/15 00:02:18;;;;;;;3.65;3.30;;;-0.90;99.90;;;;;;503031;236;27473;-69
2022/01/15 00:04:19;;;;;;;3.25;2.95;;;-0.90;99.90;;;;;;503077;236;27502;-69
2022/01/15 00:06:20;;;;;;;3.53;3.22;;;-0.90;99.90;;;;;;503061;236;27493;-69
2022/01/15 00:08:21;;;;;;;4.10;3.53;;;-0.90;99.90;;;;;;503045;236;27482;-69
2022/01/15 00:10:26;;;;;;;3.15;2.85;;;-0.90;99.90;;;;;;503044;236;27980;-69
2022/01/15 00:12:24;;;;;;;4.20;3.80;;;-0.90;99.90;;;;;;502770;236;28105;-69
2022/01/15 00:14:34;;;;;;;3.90;3.42;;;-1.00;99.90;;;;;;503069;236;29091;-69
2022/01/15 00:16:34;;;;;;;3.83;3.53;;;-1.00;99.90;;;;;;502322;236;27439;-69
2022/01/15 00:18:47;;;;;;;6.30;3.40;;;-1.00;99.90;;;;;;502716;236;27445;-69
2022/01/15 00:20:44;;;;;;;3.37;3.05;;;-1.10;99.90;;;;;;502773;236;27425;-69
2022/01/15 00:22:45;;;;;;;3.47;3.17;;;-1.10;99.90;;;;;;503050;236;27568;-69
2022/01/15 00:24:47;;;;;;;3.67;3.20;;;-1.10;99.90;;;;;;503066;236;27426;-69
2022/01/15 00:26:48;;;;;;;3.53;3.20;;;-1.20;99.90;;;;;;503037;236;27598;-69
2022/01/15 00:28:49;;;;;;;5.45;4.32;;;-1.10;99.90;;;;;;503055;236;27549;-69
2022/01/15 00:30:50;;;;;;;4.22;3.22;;;-1.10;99.90;;;;;;503068;236;27485;-69
2022/01/15 00:32:52;;;;;;;4.93;3.85;;;-1.10;99.90;;;;;;503063;236;27473;-69
2022/01/15 00:34:53;;;;;;;3.47;3.17;;;-1.10;99.90;;;;;;503057;236;27935;-69
2022/01/15 00:36:54;;;;;;;3.70;3.40;;;-1.10;99.90;;;;;;503049;236;27903;-69
2022/01/15 00:38:55;;;;;;;4.57;3.20;;;-1.10;99.90;;;;;;503079;236;28059;-69
2022/01/15 00:40:57;;;;;;;2.85;2.65;;;-1.10;99.90;;;;;;503080;236;27455;-69
2022/01/15 00:42:58;;;;;;;5.32;3.58;;;-1.00;99.90;;;;;;503032;236;27484;-70
2022/01/15 00:45:01;;;;;;;3.20;3.00;;;-1.00;99.90;;;;;;503059;236;27541;-69
2022/01/15 00:47:00;;;;;;;3.40;3.05;;;-1.00;99.90;;;;;;502932;236;27484;-73
2022/01/15 00:49:03;;;;;;;3.62;2.80;;;-1.10;99.90;;;;;;503082;236;27526;-69
2022/01/15 00:51:04;;;;;;;3.78;3.45;;;-1.10;99.90;;;;;;503082;236;27504;-69
2022/01/15 00:53:05;;;;;;;4.00;3.20;;;-1.10;99.90;;;;;;503060;236;27457;-69
2022/01/15 00:55:07;;;;;;;4.70;3.55;;;-1.20;99.90;;;;;;503053;236;27909;-69
2022/01/15 00:57:08;;;;;;;3.58;3.28;;;-1.30;99.90;;;;;;503085;236;27930;-69
2022/01/15 00:59:09;;;;;;;4.22;3.83;;;-1.40;99.90;;;;;;503090;236;28772;-69
2022/01/15 01:01:10;;;;;;;3.62;3.30;;;-1.30;99.90;;;;;;503065;236;27479;-69
2022/01/15 01:03:12;;;;;;;3.42;3.08;;;-1.30;99.90;;;;;;503047;236;27438;-69
2022/01/15 01:05:13;;;;;;;4.62;3.22;;;-1.30;99.90;;;;;;503082;236;27431;-69
2022/01/15 01:07:14;;;;;;;3.28;2.92;;;-1.30;99.90;;;;;;503066;236;27511;-69
2022/01/15 01:09:15;;;;;;;3.60;3.30;;;-1.30;99.90;;;;;;503058;236;27467;-69
2022/01/15 01:11:23;;;;;;;3.40;3.10;;;-1.30;99.90;;;;;;503060;236;27484;-69
2022/01/15 01:20:24;;;;;;;3.67;3.00;;;-1.50;99.90;;;;;;503029;236;27454;-68
2022/01/15 01:22:53;;;;;;;3.60;3.30;;;-1.50;99.90;;;;;;502341;236;27546;-68
2022/01/15 01:24:33;;;;;;;4.87;3.72;;;-1.60;99.90;;;;;;501211;236;27450;-68
2022/01/15 01:26:47;;;;;;;5.93;3.58;;;-1.60;99.90;;;;;;503022;236;27470;-68
2022/01/15 01:28:45;;;;;;;4.10;3.28;;;-1.60;99.90;;;;;;502234;236;27956;-68
2022/01/15 01:30:50;;;;;;;3.58;3.25;;;-1.60;99.90;;;;;;502669;236;27497;-68
2022/01/15 01:32:54;;;;;;;3.87;3.45;;;-1.60;99.90;;;;;;502436;236;27542;-68
2022/01/15 01:34:48;;;;;;;4.30;3.90;;;-1.60;99.90;;;;;;502512;236;27901;-68
2022/01/15 01:38:55;;;;;;;3.65;3.35;;;-1.50;99.90;;;;;;503019;236;28945;-68
2022/01/15 01:40:52;;;;;;;4.03;3.30;;;-1.50;99.90;;;;;;502720;236;27451;-68
2022/01/15 01:43:04;;;;;;;4.80;4.03;;;-1.60;99.90;;;;;;503049;236;27432;-68
2022/01/15 01:44:58;;;;;;;5.95;3.90;;;-1.60;99.90;;;;;;502473;236;27451;-68
2022/01/15 01:47:05;;;;;;;6.12;3.90;;;-1.70;99.90;;;;;;503021;236;27490;-68
2022/01/15 01:49:01;;;;;;;4.28;3.70;;;-1.60;99.90;;;;;;502509;236;27169;-68
2022/01/15 01:51:01;;;;;;;4.55;3.90;;;-1.60;99.90;;;;;;502978;236;27465;-68
2022/01/15 01:53:03;;;;;;;4.75;3.85;;;-1.60;99.90;;;;;;503035;236;27826;-68
2022/01/15 01:55:04;;;;;;;4.65;3.87;;;-1.70;99.90;;;;;;503074;236;27691;-68
2022/01/15 01:57:05;;;;;;;5.25;4.12;;;-1.80;99.90;;;;;;503072;236;27962;-68
2022/01/15 01:59:06;;;;;;;4.20;3.60;;;-1.80;99.90;;;;;;503044;236;27885;-68
2022/01/15 02:01:08;;;;;;;4.82;3.95;;;-1.80;99.90;;;;;;503047;236;27471;-68
2022/01/15 02:03:09;;;;;;;5.05;3.60;;;-1.80;99.90;;;;;;503071;236;27492;-68
2022/01/15 02:05:10;;;;;;;5.90;3.70;;;-1.80;99.90;;;;;;503066;236;27479;-68
2022/01/15 02:07:11;;;;;;;4.12;3.70;;;-1.80;99.90;;;;;;503020;236;27486;-68
2022/01/15 02:09:13;;;;;;;6.00;4.03;;;-1.80;99.90;;;;;;503046;236;27313;-68
2022/01/15 02:11:14;;;;;;;6.43;4.57;;;-1.70;99.90;;;;;;503027;236;27532;-68
2022/01/15 02:13:15;;;;;;;6.72;4.90;;;-1.50;99.90;;;;;;503074;236;27525;-68
2022/01/15 02:15:16;;;;;;;6.85;5.22;;;-1.40;99.90;;;;;;503061;236;27895;-68
2022/01/15 02:17:19;;;;;;;5.30;4.80;;;-1.40;99.90;;;;;;503060;236;28072;-68
2022/01/15 02:19:19;;;;;;;6.85;4.75;;;-1.30;99.90;;;;;;502981;236;27877;-68
2022/01/15 02:23:35;;;;;;;9.07;5.40;;;-1.20;99.90;;;;;;503069;236;27576;-67
2022/01/15 02:25:35;;;;;;;7.47;5.85;;;-1.20;99.90;;;;;;502957;236;27445;-68
2022/01/15 02:27:36;;;;;;;9.75;5.70;;;-1.30;99.90;;;;;;503027;236;27481;-68
2022/01/15 02:29:37;;;;;;;7.62;5.93;;;-1.30;99.90;;;;;;503064;236;27502;-68
2022/01/15 02:31:39;;;;;;;9.50;6.12;;;-1.30;99.90;;;;;;503047;236;27540;-68
2022/01/15 02:33:40;;;;;;;9.65;6.78;;;-1.30;99.90;;;;;;503024;236;27743;-68
2022/01/15 02:35:41;;;;;;;10.80;6.75;;;-1.20;99.90;;;;;;503022;236;27401;-68
2022/01/15 02:37:42;;;;;;;9.63;6.75;;;-1.30;99.90;;;;;;503046;236;27434;-68
2022/01/15 02:39:44;;;;;;;8.55;6.30;;;-1.30;99.90;;;;;;503045;236;27956;-68
2022/01/15 02:41:45;;;;;;;8.38;6.03;;;-1.40;99.90;;;;;;503051;236;27897;-68
2022/01/15 02:43:46;;;;;;;10.70;7.32;;;-1.40;99.90;;;;;;503049;236;27943;-68
2022/01/15 02:45:53;;;;;;;10.73;7.85;;;-1.40;99.90;;;;;;503041;236;27470;-68
2022/01/15 02:48:01;;;;;;;14.48;8.95;;;-1.50;99.90;;;;;;502582;236;27471;-68
2022/01/15 02:50:02;;;;;;;16.10;9.05;;;-1.50;99.90;;;;;;503090;236;27586;-68
2022/01/15 02:52:03;;;;;;;13.00;8.60;;;-1.50;99.90;;;;;;503071;236;27916;-68
2022/01/15 02:54:04;;;;;;;11.90;8.32;;;-1.50;99.90;;;;;;503065;236;27977;-68
2022/01/15 02:56:06;;;;;;;10.75;8.20;;;-1.50;99.90;;;;;;503046;236;27745;-68
2022/01/15 02:58:07;;;;;;;13.02;9.20;;;-1.50;99.90;;;;;;503078;236;27427;-68
2022/01/15 03:00:08;;;;;;;11.60;8.38;;;-1.50;99.90;;;;;;503113;236;27525;-68
2022/01/15 03:02:10;;;;;;;12.30;8.52;;;-1.50;99.90;;;;;;503061;236;27457;-68
2022/01/15 03:04:11;;;;;;;13.60;8.25;;;-1.50;99.90;;;;;;503074;236;27610;-68
2022/01/15 03:06:12;;;;;;;13.13;8.40;;;-1.60;99.90;;;;;;503070;236;27888;-68
2022/01/15 03:08:13;;;;;;;18.65;9.77;;;-1.60;99.90;;;;;;503080;236;27876;-68
2022/01/15 03:10:14;;;;;;;15.02;9.18;;;-1.60;99.90;;;;;;503084;236;28044;-68
2022/01/15 03:12:16;;;;;;;16.08;10.23;;;-1.70;99.90;;;;;;503062;236;27549;-68
2022/01/15 03:14:19;;;;;;;15.43;10.15;;;-1.70;99.90;;;;;;502983;236;27461;-68
2022/01/15 03:16:18;;;;;;;16.83;10.00;;;-1.70;99.90;;;;;;502762;236;27539;-68
2022/01/15 03:18:21;;;;;;;15.57;9.38;;;-1.70;99.90;;;;;;502913;236;27547;-68
2022/01/15 03:20:21;;;;;;;13.93;9.10;;;-1.80;99.90;;;;;;502797;236;27517;-68
2022/01/15 03:22:22;;;;;;;13.45;8.57;;;-1.70;99.90;;;;;;502903;236;28670;-68
2022/01/15 03:24:23;;;;;;;12.65;8.20;;;-1.70;99.90;;;;;;503095;236;28989;-68
2022/01/15 03:26:25;;;;;;;14.02;9.20;;;-1.70;99.90;;;;;;503124;236;27394;-68
2022/01/15 03:28:26;;;;;;;12.35;8.05;;;-1.70;99.90;;;;;;503066;236;27231;-68
2022/01/15 03:30:30;;;;;;;17.70;10.25;;;;;;;;;;503061;236;27479;-67
2022/01/15 03:32:31;;;;;;;19.65;10.90;;;-1.70;99.90;;;;;;503084;236;27093;-68
2022/01/15 03:34:32;;;;;;;15.40;9.55;;;-1.80;99.90;;;;;;503057;236;27323;-68
2022/01/15 03:36:33;;;;;;;16.87;9.52;;;-1.80;99.90;;;;;;503050;236;27560;-68
2022/01/15 03:38:35;;;;;;;14.70;9.65;;;-1.80;99.90;;;;;;503101;236;27349;-68
2022/01/15 03:40:36;;;;;;;17.40;10.38;;;-1.80;99.90;;;;;;503066;236;27559;-68
2022/01/15 03:42:37;;;;;;;17.12;10.25;;;-1.80;99.90;;;;;;503068;236;27622;-68
2022/01/15 03:44:38;;;;;;;18.42;10.35;;;-1.80;99.90;;;;;;503039;236;27451;-68
2022/01/15 03:46:40;;;;;;;17.73;10.82;;;-1.80;99.90;;;;;;503094;236;27892;-68
2022/01/15 03:48:41;;;;;;;17.40;10.25;;;-1.80;99.90;;;;;;503085;236;27415;-69
2022/01/15 03:50:42;;;;;;;17.23;10.80;;;-1.80;99.90;;;;;;503062;236;27227;-68
2022/01/15 03:52:43;;;;;;;16.00;10.20;;;-1.80;99.90;;;;;;503050;236;27350;-68
2022/01/15 03:54:45;;;;;;;16.55;9.48;;;-1.80;99.90;;;;;;503095;236;27235;-68
2022/01/15 03:56:46;;;;;;;17.83;10.57;;;-1.80;99.90;;;;;;503074;236;27421;-68
2022/01/15 03:58:47;;;;;;;22.45;11.70;;;-1.80;99.90;;;;;;503067;236;28092;-68
2022/01/15 04:00:48;;;;;;;16.23;10.65;;;-1.80;99.90;;;;;;503069;236;28967;-68
2022/01/15 04:02:50;;;;;;;15.13;9.80;;;-1.80;99.90;;;;;;503064;236;27548;-68
2022/01/15 04:04:52;;;;;;;15.40;10.55;;;-1.80;99.90;;;;;;503092;236;27509;-67
2022/01/15 04:06:53;;;;;;;18.37;11.05;;;-1.80;99.90;;;;;;503074;236;27363;-68
2022/01/15 04:08:55;;;;;;;16.40;9.90;;;-1.80;99.90;;;;;;503056;236;27878;-69
2022/01/15 04:10:56;;;;;;;14.87;9.88;;;-1.70;99.90;;;;;;503039;236;29029;-68
2022/01/15 04:12:57;;;;;;;16.42;10.40;;;-1.80;99.90;;;;;;503069;236;27535;-68
2022/01/15 04:14:58;;;;;;;16.98;10.13;;;-1.80;99.90;;;;;;503070;236;27434;-68
2022/01/15 04:17:00;;;;;;;13.90;9.50;;;-1.80;99.90;;;;;;503085;236;27352;-68
2022/01/15 04:19:01;;;;;;;12.63;9.63;;;-1.70;99.90;;;;;;503059;236;27571;-67
2022/01/15 04:21:02;;;;;;;13.57;8.75;;;-1.70;99.90;;;;;;503038;236;27381;-68
2022/01/15 04:23:03;;;;;;;13.73;8.73;;;-1.70;99.90;;;;;;503083;236;28741;-68
2022/01/15 04:25:05;;;;;;;15.50;9.90;;;-1.60;99.90;;;;;;503075;236;27900;-68
2022/01/15 04:27:06;;;;;;;17.50;10.02;;;-1.70;99.90;;;;;;503070;236;27581;-68
2022/01/15 04:29:07;;;;;;;12.07;8.27;;;-1.70;99.90;;;;;;503012;236;27447;-68
2022/01/15 04:31:09;;;;;;;12.80;8.52;;;-1.70;99.90;;;;;;503063;236;27457;-68
2022/01/15 04:33:10;;;;;;;13.88;9.07;;;-1.70;99.90;;;;;;503084;236;27365;-68
2022/01/15 04:35:11;;;;;;;13.62;8.73;;;-1.70;99.90;;;;;;503084;236;27271;-69
2022/01/15 04:37:16;;;;;;;13.70;8.85;;;-1.70;99.90;;;;;;502843;236;27364;-68
2022/01/15 04:39:13;;;;;;;13.32;9.45;;;-1.70;99.90;;;;;;502706;236;28667;-68
2022/01/15 04:41:15;;;;;;;13.77;9.00;;;-1.70;99.90;;;;;;503052;236;28984;-68
2022/01/15 04:43:16;;;;;;;15.15;9.82;;;-1.70;99.90;;;;;;503067;236;27487;-68
2022/01/15 04:45:17;;;;;;;16.33;10.23;;;-1.70;99.90;;;;;;503064;236;27425;-68
2022/01/15 04:47:18;;;;;;;15.80;9.77;;;-1.60;99.90;;;;;;503064;236;27343;-68
2022/01/15 04:49:20;;;;;;;16.00;9.45;;;-1.60;99.90;;;;;;503060;236;27513;-68
2022/01/15 04:51:21;;;;;;;16.85;9.00;;;-1.50;99.90;;;;;;503074;236;27368;-68
2022/01/15 04:53:22;;;;;;;17.83;9.98;;;-1.50;99.90;;;;;;503064;236;28012;-68
2022/01/15 04:55:23;;;;;;;14.85;8.50;;;-1.50;99.90;;;;;;503041;236;28112;-68
2022/01/15 04:57:25;;;;;;;16.12;9.45;;;-1.50;99.90;;;;;;503067;236;27503;-68
2022/01/15 04:59:26;;;;;;;17.80;10.07;;;-1.60;99.90;;;;;;503074;236;27490;-71
2022/01/15 05:01:28;;;;;;;14.50;9.15;;;-1.60;99.90;;;;;;503062;236;27460;-68
2022/01/15 05:03:28;;;;;;;16.48;9.80;;;-1.70;99.90;;;;;;503036;236;27494;-68
2022/01/15 05:05:30;;;;;;;18.80;9.30;;;-1.70;99.90;;;;;;503045;236;27555;-68
2022/01/15 05:07:31;;;;;;;14.90;9.13;;;-1.60;99.90;;;;;;503032;236;27477;-68
2022/01/15 05:09:32;;;;;;;19.65;10.30;;;-1.60;99.90;;;;;;503025;236;27947;-68
2022/01/15 05:11:45;;;;;;;17.05;9.40;;;-1.60;99.90;;;;;;503058;236;28976;-67
2022/01/15 05:13:36;;;;;;;13.27;8.88;;;-1.50;99.90;;;;;;502106;236;27503;-68
2022/01/15 05:15:36;;;;;;;17.00;9.27;;;-1.50;99.90;;;;;;502976;236;27548;-68
2022/01/15 05:17:37;;;;;;;16.33;8.80;;;-1.50;99.90;;;;;;503077;236;27449;-67
2022/01/15 05:19:39;;;;;;;13.93;8.95;;;-1.50;99.90;;;;;;503066;236;27490;-68
2022/01/15 05:21:40;;;;;;;11.15;7.45;;;-1.60;99.90;;;;;;503057;236;27138;-68
2022/01/15 05:23:41;;;;;;;14.15;9.40;;;-1.50;99.90;;;;;;503030;236;27946;-68
2022/01/15 05:25:42;;;;;;;13.77;8.57;;;-1.40;99.90;;;;;;503048;236;28055;-68
2022/01/15 05:27:44;;;;;;;12.50;7.95;;;-1.40;99.90;;;;;;503052;236;27391;-68
2022/01/15 05:29:45;;;;;;;14.05;9.30;;;-1.40;99.90;;;;;;503066;236;27482;-68
2022/01/15 05:31:46;;;;;;;13.15;9.35;;;-1.50;99.90;;;;;;503047;236;27498;-68
2022/01/15 05:33:47;;;;;;;19.33;11.10;;;-1.50;99.90;;;;;;503058;236;27483;-68
2022/01/15 05:35:49;;;;;;;13.95;9.18;;;-1.60;99.90;;;;;;503073;236;27617;-68
2022/01/15 05:37:50;;;;;;;19.80;9.18;;;-1.50;99.90;;;;;;503076;236;27453;-68
2022/01/15 05:39:51;;;;;;;13.68;8.73;;;-1.50;99.90;;;;;;503045;236;27978;-68
2022/01/15 05:41:52;;;;;;;15.13;8.80;;;-1.40;99.90;;;;;;503075;236;28059;-68
2022/01/15 05:43:54;;;;;;;12.80;7.87;;;-1.40;99.90;;;;;;503028;236;27493;-69
2022/01/15 05:45:55;;;;;;;15.63;9.45;;;-1.40;99.90;;;;;;503055;236;27466;-68
2022/01/15 05:47:56;;;;;;;15.25;9.60;;;-1.40;99.90;;;;;;503055;236;27458;-68
2022/01/15 05:49:57;;;;;;;15.43;9.40;;;-1.40;99.90;;;;;;503052;236;27364;-68
2022/01/15 05:51:59;;;;;;;15.88;9.07;;;-1.40;99.90;;;;;;503037;236;27480;-68
2022/01/15 05:54:00;;;;;;;16.12;9.10;;;-1.50;99.90;;;;;;503043;236;27502;-68
2022/01/15 05:56:01;;;;;;;15.27;9.65;;;-1.50;99.90;;;;;;503056;236;28079;-68
2022/01/15 05:58:02;;;;;;;19.05;10.45;;;-1.40;99.90;;;;;;503046;236;29002;-68
2022/01/15 06:00:04;;;;;;;16.30;9.20;;;-1.40;99.90;;;;;;503048;236;27498;-68
2022/01/15 06:02:05;;;;;;;17.60;10.50;;;-1.50;99.90;;;;;;503042;236;27469;-68
2022/01/15 06:04:06;;;;;;;14.57;9.65;;;-1.50;99.90;;;;;;503087;236;27465;-68
2022/01/15 06:06:07;;;;;;;14.70;9.23;;;-1.40;99.90;;;;;;503071;236;27494;-68
2022/01/15 06:08:09;;;;;;;16.75;10.15;;;-1.40;99.90;;;;;;503068;236;27430;-69
2022/01/15 06:10:10;;;;;;;13.80;8.70;;;-1.40;99.90;;;;;;503036;236;28055;-68
2022/01/15 06:12:11;;;;;;;16.23;10.05;;;-1.40;99.90;;;;;;503066;236;28059;-68
2022/01/15 06:14:12;;;;;;;16.30;9.60;;;-1.40;99.90;;;;;;503068;236;27441;-68
2022/01/15 06:16:14;;;;;;;15.27;9.77;;;-1.40;99.90;;;;;;503059;236;27474;-68
2022/01/15 06:18:15;;;;;;;14.50;8.85;;;-1.30;99.90;;;;;;503035;236;27507;-68
2022/01/15 06:20:16;;;;;;;16.05;9.65;;;-1.30;99.90;;;;;;503022;236;27489;-68
2022/01/15 06:22:17;;;;;;;12.57;8.82;;;-1.40;99.90;;;;;;503134;236;27479;-68
2022/01/15 06:24:19;;;;;;;19.70;11.00;;;-1.30;99.90;;;;;;503065;236;28698;-68
2022/01/15 06:26:20;;;;;;;15.93;10.38;;;-1.40;99.90;;;;;;503075;236;29135;-68
2022/01/15 06:28:21;;;;;;;16.17;10.05;;;-1.40;99.90;;;;;;503054;236;27466;-68
2022/01/15 06:30:23;;;;;;;19.52;10.68;;;-1.40;99.90;;;;;;503077;236;27472;-68
2022/01/15 06:32:24;;;;;;;17.65;10.05;;;-1.40;99.90;;;;;;503094;236;27491;-68
2022/01/15 06:34:25;;;;;;;19.00;10.95;;;-1.40;99.90;;;;;;503080;236;27534;-67
2022/01/15 06:36:26;;;;;;;18.52;10.90;;;-1.40;99.90;;;;;;503053;236;27941;-68
2022/01/15 06:38:28;;;;;;;16.77;10.18;;;-1.40;99.90;;;;;;503054;236;28961;-68
2022/01/15 06:40:29;;;;;;;17.00;10.45;;;-1.40;99.90;;;;;;503102;236;27518;-68
2022/01/15 06:42:30;;;;;;;18.17;11.57;;;-1.40;99.90;;;;;;503091;236;27478;-68
2022/01/15 06:44:31;;;;;;;18.17;10.90;;;-1.40;99.90;;;;;;503101;236;27481;-68
2022/01/15 06:46:33;;;;;;;16.25;10.32;;;-1.40;99.90;;;;;;503040;236;27525;-68
2022/01/15 06:48:34;;;;;;;16.05;9.23;;;-1.30;99.90;;;;;;503089;236;27573;-68
2022/01/15 06:50:37;;;;;;;18.58;10.50;;;-1.20;99.90;;;;;;503057;236;27552;-68
2022/01/15 06:52:36;;;;;;;17.65;9.80;;;-1.30;99.90;;;;;;502915;236;27478;-68
2022/01/15 06:54:38;;;;;;;14.90;8.57;;;-1.40;99.90;;;;;;503045;236;27439;-68
2022/01/15 06:56:39;;;;;;;14.00;9.02;;;-1.30;99.90;;;;;;503045;236;27897;-68
2022/01/15 06:58:40;;;;;;;16.60;9.32;;;-1.40;99.90;;;;;;503084;236;27965;-68
2022/01/15 07:00:42;;;;;;;15.85;9.88;;;-1.30;99.90;;;;;;503065;236;27576;-68
2022/01/15 07:02:43;;;;;;;15.85;9.70;;;-1.40;99.90;;;;;;503011;236;27469;-68
2022/01/15 07:04:44;;;;;;;13.55;9.00;;;-1.40;99.90;;;;;;503081;236;27573;-68
2022/01/15 07:06:45;;;;;;;13.48;9.40;;;-1.30;99.90;;;;;;503056;236;27544;-68
2022/01/15 07:08:47;;;;;;;14.98;9.10;;;-1.30;99.90;;;;;;503061;236;27490;-68
2022/01/15 07:10:48;;;;;;;17.73;10.82;;;-1.30;99.90;;;;;;503039;236;27618;-68
2022/01/15 07:12:49;;;;;;;15.85;9.60;;;-1.40;99.90;;;;;;503061;236;27973;-68
2022/01/15 07:14:50;;;;;;;14.40;9.45;;;-1.30;99.90;;;;;;503088;236;27985;-68
2022/01/15 07:16:52;;;;;;;14.18;8.35;;;-1.30;99.90;;;;;;503085;236;27488;-68
2022/01/15 07:18:53;;;;;;;14.80;8.90;;;-1.20;99.90;;;;;;503069;236;27350;-68
2022/01/15 07:20:54;;;;;;;12.25;7.95;;;-1.30;99.90;;;;;;503053;236;27450;-68
2022/01/15 07:22:55;;;;;;;13.80;8.85;;;-1.30;99.90;;;;;;503046;236;27416;-68
2022/01/15 07:24:57;;;;;;;14.52;8.57;;;-1.30;99.90;;;;;;503095;236;27499;-68
2022/01/15 07:26:58;;;;;;;12.80;8.95;;;-1.30;99.90;;;;;;503067;236;27509;-69
2022/01/15 07:28:59;;;;;;;15.13;9.65;;;-1.30;99.90;;;;;;503083;236;27943;-68
2022/01/15 07:31:00;;;;;;;15.90;9.50;;;-1.30;99.90;;;;;;503045;236;29114;-68
2022/01/15 07:33:02;;;;;;;15.75;9.35;;;-1.30;99.90;;;;;;503075;236;27556;-68
2022/01/15 07:35:03;;;;;;;14.05;8.90;;;-1.30;99.90;;;;;;503090;236;27565;-68
2022/01/15 07:37:04;;;;;;;12.70;7.85;;;-1.30;99.90;;;;;;503043;236;27438;-68
2022/01/15 07:39:05;;;;;;;15.38;9.02;;;-1.20;99.90;;;;;;503063;236;27475;-68
2022/01/15 07:41:11;;;;;;;15.65;8.30;;;-1.10;99.90;;;;;;503059;236;27858;-68
2022/01/15 07:43:08;;;;;;;13.10;8.25;;;-1.10;99.90;;;;;;502708;236;27950;-68
2022/01/15 07:45:09;;;;;;;13.52;8.55;;;-1.10;99.90;;;;;;503068;236;27958;-68
2022/01/15 07:47:12;;;;;;;15.02;7.80;;;-1.10;99.90;;;;;;503057;236;27437;-68
2022/01/15 07:49:12;;;;;;;11.90;7.57;;;-1.10;99.90;;;;;;502988;236;27480;-68
2022/01/15 07:51:13;;;;;;;13.10;8.40;;;-1.10;99.90;;;;;;503052;236;27587;-68
2022/01/15 07:53:14;;;;;;;18.30;10.30;;;-1.10;99.90;;;;;;503060;236;27426;-68
2022/01/15 07:55:15;;;;;;;12.50;7.43;;;-1.10;99.90;;;;;;503052;236;27483;-68
2022/01/15 07:57:17;;;;;;;13.40;8.75;;;-1.10;99.90;;;;;;503043;236;27437;-68
2022/01/15 07:59:18;;;;;;;15.77;8.32;;;-1.10;99.90;;;;;;503051;236;27919;-69
2022/01/15 08:01:19;;;;;;;10.57;7.28;;;-1.00;99.90;;;;;;503086;236;29125;-68
2022/01/15 08:03:21;;;;;;;14.13;8.68;;;-1.00;99.90;;;;;;503070;236;27437;-68
2022/01/15 08:05:22;;;;;;;9.90;7.18;;;-1.00;99.90;;;;;;503083;236;27613;-68
2022/01/15 08:07:23;;;;;;;10.45;6.82;;;-0.90;99.90;;;;;;503048;236;27434;-68
2022/01/15 08:09:24;;;;;;;12.50;8.15;;;-0.80;99.90;;;;;;503079;236;27455;-67
2022/01/15 08:11:26;;;;;;;14.75;8.95;;;-0.80;99.90;;;;;;503066;236;27476;-68
2022/01/15 08:13:27;;;;;;;14.27;8.85;;;-0.90;99.90;;;;;;502855;236;27435;-68
2022/01/15 08:15:28;;;;;;;15.80;9.20;;;-0.80;99.90;;;;;;503060;236;27972;-68
2022/01/15 08:17:30;;;;;;;18.98;10.30;;;-0.70;99.90;;;;;;503034;236;27977;-68
2022/01/15 08:19:31;;;;;;;22.58;10.98;;;-0.70;99.90;;;;;;503083;236;27526;-68
2022/01/15 08:21:32;;;;;;;19.40;9.75;;;-0.80;99.90;;;;;;503055;236;27532;-68
2022/01/15 08:23:35;;;;;;;15.95;9.15;;;-0.90;99.90;;;;;;503072;236;27429;-67
2022/01/15 08:25:34;;;;;;;16.70;9.50;;;-0.70;99.90;;;;;;502879;236;27565;-68
2022/01/15 08:27:36;;;;;;;14.60;9.00;;;-0.70;99.90;;;;;;503072;236;27468;-68
2022/01/15 08:29:37;;;;;;;16.62;10.20;;;-0.70;99.90;;;;;;503071;236;27891;-68
2022/01/15 08:31:38;;;;;;;13.93;8.88;;;-0.60;99.90;;;;;;503041;236;28064;-68
2022/01/15 08:33:39;;;;;;;13.38;9.13;;;-0.70;99.90;;;;;;503066;236;27513;-68
2022/01/15 08:35:41;;;;;;;14.90;9.30;;;-0.70;99.90;;;;;;503051;236;27541;-68
2022/01/15 08:37:42;;;;;;;16.98;10.15;;;-0.70;99.90;;;;;;503088;236;27559;-68
2022/01/15 08:39:43;;;;;;;13.80;8.80;;;-0.60;99.90;;;;;;503094;236;27449;-68
2022/01/15 08:41:48;;;;;;;12.95;8.90;;;-0.50;99.90;;;;;;503058;236;27503;-68
2022/01/15 08:43:46;;;;;;;11.12;8.18;;;-0.50;99.90;;;;;;502803;236;27894;-68
2022/01/15 08:45:47;;;;;;;13.82;8.95;;;-0.50;99.90;;;;;;503066;236;27882;-68
2022/01/15 08:47:48;;;;;;;11.75;8.45;;;-0.50;99.90;;;;;;503068;236;27480;-68
2022/01/15 08:49:49;;;;;;;12.43;8.35;;;-0.60;99.90;;;;;;503056;236;27434;-68
2022/01/15 08:51:51;;;;;;;13.40;8.30;;;-0.60;99.90;;;;;;503010;236;27486;-68
2022/01/15 08:53:52;;;;;;;13.68;9.45;;;-0.70;99.90;;;;;;502980;236;27472;-68
2022/01/15 08:55:53;;;;;;;19.23;10.10;;;-0.60;99.90;;;;;;503072;236;27462;-68
2022/01/15 08:57:54;;;;;;;14.65;9.90;;;-0.60;99.90;;;;;;503055;236;27525;-68
2022/01/15 08:59:56;;;;;;;13.68;9.45;;;-0.40;99.90;;;;;;503034;236;28002;-68
2022/01/15 09:01:57;;;;;;;13.85;9.07;;;-0.30;99.90;;;;;;503044;236;27962;-68
2022/01/15 09:03:58;;;;;;;15.55;9.18;;;-0.30;99.90;;;;;;503047;236;27566;-68
2022/01/15 09:05:59;;;;;;;16.80;10.52;;;-0.30;99.90;;;;;;503043;236;27494;-68
2022/01/15 09:08:01;;;;;;;15.35;9.68;;;-0.30;99.90;;;;;;503073;236;27557;-68
2022/01/15 09:10:02;;;;;;;14.18;9.77;;;-0.30;99.90;;;;;;503020;236;27477;-68
2022/01/15 09:12:03;;;;;;;16.73;9.20;;;-0.30;99.90;;;;;;503031;236;27542;-68
2022/01/15 09:14:05;;;;;;;15.93;9.85;;;-0.20;99.90;;;;;;503057;236;28047;-68
2022/01/15 09:16:06;;;;;;;13.70;8.98;;;-0.10;99.90;;;;;;503057;236;27985;-68
2022/01/15 09:18:07;;;;;;;15.20;9.98;;;-0.10;99.90;;;;;;503040;236;27553;-68
2022/01/15 09:20:08;;;;;;;16.85;11.00;;;-0.20;99.90;;;;;;503029;236;27441;-68
2022/01/15 09:22:11;;;;;;;15.38;10.18;;;-0.10;99.90;;;;;;503046;236;27462;-68
2022/01/15 09:24:11;;;;;;;14.60;9.00;;;-0.10;99.90;;;;;;502986;236;27463;-68
2022/01/15 09:26:20;;;;;;;14.43;9.50;;;0.10;99.90;;;;;;503070;236;27480;-68
2022/01/15 09:30:33;;;;;;;13.65;9.20;;;0.20;99.90;;;;;;503056;236;27496;-69
2022/01/15 09:32:34;;;;;;;14.20;9.00;;;0.40;99.90;;;;;;503060;236;27443;-68
2022/01/15 09:34:35;;;;;;;15.70;8.75;;;0.30;99.90;;;;;;503033;236;27487;-68
2022/01/15 09:36:37;;;;;;;13.05;8.55;;;0.30;99.90;;;;;;503021;236;28037;-68
2022/01/15 09:38:38;;;;;;;15.23;9.98;;;0.40;99.90;;;;;;503059;236;27901;-68
2022/01/15 09:40:41;;;;;;;17.15;9.55;;;0.20;99.90;;;;;;503065;236;27508;-68
2022/01/15 09:42:40;;;;;;;14.18;8.90;;;0.30;99.90;;;;;;502974;236;27521;-68
2022/01/15 09:44:42;;;;;;;14.82;9.63;;;0.40;99.90;;;;;;503046;236;27537;-68
2022/01/15 09:46:43;;;;;;;13.32;9.43;;;0.40;99.90;;;;;;503017;236;27470;-69
2022/01/15 09:48:44;;;;;;;14.30;9.40;;;0.60;99.90;;;;;;503096;236;27421;-68
2022/01/15 09:50:46;;;;;;;13.75;9.07;;;0.60;99.90;;;;;;503060;236;27501;-68
2022/01/15 09:52:47;;;;;;;17.17;9.00;;;0.50;99.90;;;;;;503042;236;27430;-68
2022/01/15 09:54:48;;;;;;;13.30;9.15;;;0.50;99.90;;;;;;503038;236;27887;-68
2022/01/15 09:56:49;;;;;;;11.95;9.05;;;0.50;99.90;;;;;;503035;236;28050;-68
2022/01/15 09:58:52;;;;;;;16.58;10.15;;;0.40;99.90;;;;;;503068;236;27914;-68
2022/01/15 10:00:52;;;;;;;13.62;9.00;;;0.40;99.90;;;;;;502933;236;27466;-68
2022/01/15 10:02:53;;;;;;;14.13;9.77;;;0.40;99.90;;;;;;503032;236;27477;-68
2022/01/15 10:04:54;;;;;;;14.20;9.50;;;0.50;99.90;;;;;;503020;236;27477;-68
2022/01/15 10:06:55;;;;;;;13.50;9.10;;;0.50;99.90;;;;;;503060;236;27514;-68
2022/01/15 10:08:57;;;;;;;17.95;10.98;;;0.50;99.90;;;;;;503047;236;27448;-69
2022/01/15 10:10:59;;;;;;;14.02;9.50;;;0.70;99.90;;;;;;503036;236;27493;-68
2022/01/15 10:12:59;;;;;;;16.20;10.30;;;0.60;99.90;;;;;;502945;236;27438;-68
2022/01/15 10:15:00;;;;;;;19.80;11.02;;;0.60;99.90;;;;;;503052;236;27917;-68
2022/01/15 10:17:02;;;;;;;17.33;10.05;;;0.60;99.90;;;;;;503079;236;28012;-68
2022/01/15 10:19:03;;;;;;;17.65;10.27;;;0.70;99.90;;;;;;503029;236;27556;-68
2022/01/15 10:21:04;;;;;;;16.25;9.95;;;0.60;99.90;;;;;;503037;236;27474;-68
2022/01/15 10:23:05;;;;;;;16.15;11.05;;;0.60;99.90;;;;;;503061;236;27481;-68
2022/01/15 10:25:07;;;;;;;15.70;9.73;;;0.70;99.90;;;;;;503045;236;27490;-68
2022/01/15 10:27:08;;;;;;;15.80;10.40;;;0.90;99.90;;;;;;503057;236;27474;-68
2022/01/15 10:29:10;;;;;;;15.13;9.95;;;0.90;99.90;;;;;;503054;236;27446;-69
2022/01/15 10:31:10;;;;;;;13.25;8.88;;;1.00;99.90;;;;;;503017;236;27957;-68
2022/01/15 10:33:12;;;;;;;12.40;8.80;;;1.00;99.90;;;;;;503004;236;28658;-68
2022/01/15 10:35:13;;;;;;;12.73;8.73;;;0.80;99.90;;;;;;503045;236;27959;-68
2022/01/15 10:37:14;;;;;;;13.55;8.50;;;0.90;99.90;;;;;;503028;236;27471;-68